createdAt,value
2018-01-22T00:03:21.283Z,99177.66
2018-01-22T00:09:24.677Z,99185.95
2018-01-22T00:15:28.114Z,99168.47
2018-01-22T00:21:31.558Z,99160.97
2018-01-22T00:27:35.750Z,99145.23
2018-01-22T00:33:39.150Z,99138.26
2018-01-22T00:39:42.634Z,99125.64
2018-01-22T00:45:46.779Z,99117.05
2018-01-22T00:51:50.970Z,99097.52
2018-01-22T00:57:54.384Z,99088.78
2018-01-22T01:03:57.812Z,99092.55
2018-01-22T01:10:01.217Z,99064.00
2018-01-22T01:16:05.585Z,99033.13
2018-01-22T01:22:09.020Z,99025.83
2018-01-22T01:28:13.188Z,99017.11
2018-01-22T01:34:16.638Z,99026.56
2018-01-22T01:40:20.886Z,99030.44
2018-01-22T01:46:24.311Z,99018.86
2018-01-22T01:52:27.722Z,99010.75
2018-01-22T01:58:31.150Z,98999.72
2018-01-22T02:04:34.563Z,98997.36
2018-01-22T02:10:37.976Z,98981.34
2018-01-22T02:16:41.371Z,98994.66
2018-01-22T02:22:44.795Z,98976.27
2018-01-22T02:28:48.232Z,98947.96
2018-01-22T02:34:51.643Z,98932.28
2018-01-22T02:40:55.052Z,98900.02
2018-01-22T02:46:58.459Z,98911.89
2018-01-22T02:53:01.880Z,98909.05
2018-01-22T02:59:05.283Z,98891.60
2018-01-22T03:05:08.695Z,98895.09
2018-01-22T03:11:12.843Z,98905.59
2018-01-22T03:17:16.261Z,98873.19
2018-01-22T03:23:19.657Z,98879.14
2018-01-22T03:29:23.825Z,98873.28
2018-01-22T03:35:27.228Z,98865.37
2018-01-22T03:41:30.894Z,98845.64
2018-01-22T03:47:34.315Z,98838.06
2018-01-22T03:53:37.728Z,98837.70
2018-01-22T03:59:41.120Z,98836.25
2018-01-22T04:05:44.579Z,98844.11
2018-01-22T04:11:48.003Z,98828.33
2018-01-22T04:17:51.417Z,98806.08
2018-01-22T04:23:54.824Z,98770.24
2018-01-22T04:29:58.263Z,98749.63
2018-01-22T04:36:01.686Z,98772.59
2018-01-22T04:42:05.152Z,98759.31
2018-01-22T04:48:08.547Z,98768.02
2018-01-22T04:54:12.732Z,98754.67
2018-01-22T05:00:16.875Z,98728.32
2018-01-22T05:06:20.281Z,98730.63
2018-01-22T05:12:23.720Z,98738.17
2018-01-22T05:18:27.116Z,98736.06
2018-01-22T05:24:30.520Z,98722.88
2018-01-22T05:30:33.918Z,98703.05
2018-01-22T05:36:38.087Z,98693.08
2018-01-22T05:42:41.506Z,98694.10
2018-01-22T05:48:44.930Z,98677.73
2018-01-22T05:54:48.329Z,98643.14
2018-01-22T06:00:51.714Z,98647.34
2018-01-22T06:06:55.132Z,98632.59
2018-01-22T06:12:58.529Z,98622.31
2018-01-22T06:19:01.995Z,98610.95
2018-01-22T06:25:06.177Z,98625.19
2018-01-22T06:31:09.603Z,98632.60
2018-01-22T06:37:13.002Z,98625.36
2018-01-22T06:43:16.426Z,98622.02
2018-01-22T06:49:19.853Z,98614.33
2018-01-22T06:55:23.286Z,98614.64
2018-01-22T07:01:26.706Z,98604.50
2018-01-22T07:07:30.381Z,98616.16
2018-01-22T07:13:33.785Z,98624.33
2018-01-22T07:19:37.956Z,98610.56
2018-01-22T07:25:41.958Z,98615.04
2018-01-22T07:31:45.366Z,98619.77
2018-01-22T07:37:49.544Z,98605.30
2018-01-22T07:43:52.948Z,98596.46
2018-01-22T07:49:56.341Z,98598.85
2018-01-22T07:56:00.549Z,98599.67
2018-01-22T08:02:03.961Z,98585.36
2018-01-22T08:08:07.399Z,98606.22
2018-01-22T08:14:10.831Z,98581.73
2018-01-22T08:20:15.036Z,98575.55
2018-01-22T08:26:18.479Z,98577.67
2018-01-22T08:32:21.903Z,98576.27
2018-01-22T08:38:25.317Z,98544.33
2018-01-22T08:44:28.710Z,98546.85
2018-01-22T08:50:32.148Z,98545.09
2018-01-22T08:56:35.581Z,98556.11
2018-01-22T09:02:39.017Z,98558.44
2018-01-22T09:08:43.232Z,98550.72
2018-01-22T09:14:46.638Z,98533.52
2018-01-22T09:20:50.057Z,98530.05
2018-01-22T09:26:53.533Z,98538.91
2018-01-22T09:32:56.948Z,98534.66
2018-01-22T09:39:00.622Z,98536.25
2018-01-22T09:45:04.021Z,98533.33
2018-01-22T09:51:08.191Z,98527.73
2018-01-22T09:57:11.615Z,98532.10
2018-01-22T10:03:15.047Z,98535.86
2018-01-22T10:09:19.232Z,98520.98
2018-01-22T10:15:22.654Z,98531.84
2018-01-22T10:21:26.070Z,98527.87
2018-01-22T10:27:29.495Z,98524.06
2018-01-22T10:33:33.038Z,98527.30
2018-01-22T10:39:36.468Z,98524.52
2018-01-22T10:45:39.891Z,98521.19
2018-01-22T10:51:44.072Z,98514.02
2018-01-22T10:57:47.483Z,98506.67
2018-01-22T11:03:50.881Z,98493.61
2018-01-22T11:09:55.062Z,98491.87
2018-01-22T11:16:03.848Z,98478.56
2018-01-22T11:22:08.033Z,98461.87
2018-01-22T11:28:11.450Z,98463.47
2018-01-22T11:34:14.945Z,98459.50
2018-01-22T11:40:18.398Z,98464.94
2018-01-22T11:46:21.823Z,98456.18
2018-01-22T11:52:25.277Z,98454.71
2018-01-22T11:58:28.707Z,98462.64
2018-01-22T12:04:32.904Z,98453.39
2018-01-22T12:10:37.076Z,98449.25
2018-01-22T12:16:40.486Z,98449.75
2018-01-22T12:22:43.898Z,98448.64
2018-01-22T12:28:47.302Z,98448.92
2018-01-22T12:34:50.703Z,98456.50
2018-01-22T12:40:54.103Z,98453.03
2018-01-22T12:46:57.493Z,98455.27
2018-01-22T12:53:01.657Z,98458.64
2018-01-22T12:59:05.055Z,98464.44
2018-01-22T13:05:09.205Z,98463.61
2018-01-22T13:11:12.602Z,98462.79
2018-01-22T13:17:16.788Z,98472.05
2018-01-22T13:23:20.226Z,98469.81
2018-01-22T13:29:23.650Z,98472.45
2018-01-22T13:35:27.129Z,98468.16
2018-01-22T13:41:30.999Z,98468.80
2018-01-22T13:47:34.406Z,98480.42
2018-01-22T13:53:37.802Z,98470.86
2018-01-22T13:59:41.221Z,98484.67
2018-01-22T14:05:44.698Z,98495.25
2018-01-22T14:11:48.873Z,98498.27
2018-01-22T14:17:52.275Z,98510.02
2018-01-22T14:23:55.678Z,98505.36
2018-01-22T14:29:59.842Z,98516.55
2018-01-22T14:36:03.298Z,98520.88
2018-01-22T14:42:06.710Z,98531.94
2018-01-22T14:48:10.108Z,98532.75
2018-01-22T14:54:13.490Z,98537.64
2018-01-22T15:00:16.932Z,98532.34
2018-01-22T15:06:20.349Z,98540.96
2018-01-22T15:12:23.775Z,98546.84
2018-01-22T15:18:27.187Z,98566.41
2018-01-22T15:24:30.624Z,98560.47
2018-01-22T15:30:34.027Z,98575.17
2018-01-22T15:36:37.455Z,98587.66
2018-01-22T15:42:40.891Z,98592.52
2018-01-22T15:48:44.398Z,98603.62
2018-01-22T15:54:47.748Z,98606.10
2018-01-22T16:00:51.958Z,98612.43
2018-01-22T16:06:55.354Z,98622.88
2018-01-22T16:12:58.759Z,98639.88
2018-01-22T16:19:02.979Z,98653.75
2018-01-22T16:25:06.377Z,98659.55
2018-01-22T16:31:09.821Z,98683.11
2018-01-22T16:37:13.241Z,98690.84
2018-01-22T16:49:27.984Z,98718.19
2018-01-22T16:55:32.153Z,98738.97
2018-01-22T17:01:35.601Z,98752.17
2018-01-22T17:07:39.046Z,98747.07
2018-01-22T17:13:43.223Z,98755.86
2018-01-22T17:19:46.722Z,98775.14
2018-01-22T17:25:50.886Z,98788.71
2018-01-22T17:31:54.324Z,98803.30
2018-01-22T17:37:58.508Z,98807.14
2018-01-22T17:44:02.714Z,98820.09
2018-01-22T17:50:06.141Z,98828.66
2018-01-22T17:56:09.604Z,98829.17
2018-01-22T18:02:13.089Z,98834.47
2018-01-22T18:08:16.516Z,98842.07
2018-01-22T18:14:20.700Z,98858.13
2018-01-22T18:20:24.115Z,98872.84
2018-01-22T18:26:27.542Z,98893.14
2018-01-22T18:32:30.986Z,98890.16
2018-01-22T18:38:34.388Z,98902.25
2018-01-22T18:44:37.811Z,98903.44
2018-01-22T18:50:41.220Z,98920.73
2018-01-22T18:56:44.636Z,98917.38
2018-01-22T19:02:48.048Z,98940.45
2018-01-22T19:08:51.493Z,98933.91
2018-01-22T19:14:54.908Z,98933.88
2018-01-22T19:20:58.346Z,98934.00
2018-01-22T19:27:01.752Z,98932.88
2018-01-22T19:33:05.161Z,98944.73
2018-01-22T19:39:08.583Z,98949.13
2018-01-22T19:45:12.018Z,98962.73
2018-01-22T19:51:15.453Z,98972.59
2018-01-22T19:57:18.816Z,98975.64
2018-01-22T20:03:22.291Z,98993.02
2018-01-22T20:09:25.741Z,99011.26
2018-01-22T20:15:30.052Z,99034.02
2018-01-22T20:21:34.275Z,99043.28
2018-01-22T20:27:37.729Z,99039.61
2018-01-22T20:33:41.161Z,99059.84
2018-01-22T20:39:44.562Z,99061.41
2018-01-22T20:45:48.743Z,99055.81
2018-01-22T20:51:52.155Z,99066.69
2018-01-22T20:57:55.571Z,99080.94
2018-01-22T21:03:59.055Z,99096.50
2018-01-22T21:10:03.245Z,99099.19
2018-01-22T21:16:06.673Z,99113.44
2018-01-22T21:22:10.100Z,99124.03
2018-01-22T21:28:13.532Z,99129.58
2018-01-22T21:34:17.016Z,99139.17
2018-01-22T21:40:20.455Z,99148.94
2018-01-22T21:46:23.885Z,99166.20
2018-01-22T21:52:27.325Z,99178.80
2018-01-22T21:58:31.484Z,99183.91
2018-01-22T22:04:34.877Z,99192.24
2018-01-22T22:10:39.067Z,99198.77
2018-01-22T22:16:42.746Z,99201.69
2018-01-22T22:22:46.962Z,99225.89
2018-01-22T22:28:51.208Z,99239.56
2018-01-22T22:34:54.606Z,99248.44
2018-01-22T22:40:58.000Z,99252.34
2018-01-22T22:47:01.431Z,99261.31
2018-01-22T22:53:05.601Z,99274.78
2018-01-22T22:59:09.780Z,99278.52
2018-01-22T23:05:13.202Z,99293.05
2018-01-22T23:11:16.599Z,99291.96
2018-01-22T23:17:20.002Z,99300.45
2018-01-22T23:23:24.230Z,99312.32
2018-01-22T23:29:27.635Z,99324.42
2018-01-22T23:35:31.034Z,99338.03
2018-01-22T23:41:34.427Z,99342.11
2018-01-22T23:47:37.844Z,99349.25
2018-01-22T23:53:41.237Z,99356.04
2018-01-22T23:59:45.428Z,99378.09
